sensor_id;sensor_type;location;lat;lon;timestamp;P1;durP1;ratioP1;P2;durP2;ratioP2
2259;SDS011;333;48.800;9.530;2022-10-19T00:02:19;19.33;;;11.63;;
2259;SDS011;333;48.800;9.530;2022-10-19T00:04:46;15.60;;;11.87;;
2259;SDS011;333;48.800;9.530;2022-10-19T00:07:13;18.20;;;12.43;;
2259;SDS011;333;48.800;9.530;2022-10-19T00:09:41;16.13;;;11.57;;
2259;SDS011;333;48.800;9.530;2022-10-19T00:12:09;26.30;;;14.10;;
2259;SDS011;333;48.800;9.530;2022-10-19T00:14:37;34.33;;;13.13;;
2259;SDS011;333;48.800;9.530;2022-10-19T00:17:04;14.20;;;11.70;;
2259;SDS011;333;48.800;9.530;2022-10-19T00:19:32;19.30;;;13.77;;
2259;SDS011;333;48.800;9.530;2022-10-19T00:22:00;36.40;;;13.63;;
2259;SDS011;333;48.800;9.530;2022-10-19T00:24:27;24.70;;;13.03;;
2259;SDS011;333;48.800;9.530;2022-10-19T00:26:54;25.40;;;13.03;;
2259;SDS011;333;48.800;9.530;2022-10-19T00:29:21;24.83;;;14.67;;
2259;SDS011;333;48.800;9.530;2022-10-19T00:31:48;39.43;;;14.57;;
2259;SDS011;333;48.800;9.530;2022-10-19T00:34:16;39.30;;;14.83;;
2259;SDS011;333;48.800;9.530;2022-10-19T00:36:44;46.07;;;14.70;;
2259;SDS011;333;48.800;9.530;2022-10-19T00:39:12;25.60;;;13.80;;
2259;SDS011;333;48.800;9.530;2022-10-19T00:41:40;28.67;;;15.07;;
2259;SDS011;333;48.800;9.530;2022-10-19T00:46:50;18.67;;;13.37;;
2259;SDS011;333;48.800;9.530;2022-10-19T00:49:19;34.40;;;15.07;;
2259;SDS011;333;48.800;9.530;2022-10-19T00:51:49;25.67;;;14.27;;
2259;SDS011;333;48.800;9.530;2022-10-19T00:54:16;38.30;;;14.80;;
2259;SDS011;333;48.800;9.530;2022-10-19T00:56:45;19.97;;;13.37;;
2259;SDS011;333;48.800;9.530;2022-10-19T00:59:13;38.00;;;14.43;;
2259;SDS011;333;48.800;9.530;2022-10-19T01:01:41;37.10;;;16.30;;
2259;SDS011;333;48.800;9.530;2022-10-19T01:04:10;27.87;;;14.90;;
2259;SDS011;333;48.800;9.530;2022-10-19T01:06:37;24.70;;;14.03;;
2259;SDS011;333;48.800;9.530;2022-10-19T01:09:07;18.53;;;13.33;;
2259;SDS011;333;48.800;9.530;2022-10-19T01:11:37;20.23;;;12.53;;
2259;SDS011;333;48.800;9.530;2022-10-19T01:14:10;16.70;;;12.57;;
2259;SDS011;333;48.800;9.530;2022-10-19T01:16:42;16.93;;;12.33;;
2259;SDS011;333;48.800;9.530;2022-10-19T01:19:17;17.77;;;13.23;;
2259;SDS011;333;48.800;9.530;2022-10-19T01:21:52;22.93;;;14.00;;
2259;SDS011;333;48.800;9.530;2022-10-19T01:24:30;19.13;;;12.90;;
2259;SDS011;333;48.800;9.530;2022-10-19T01:27:14;28.17;;;16.23;;
2259;SDS011;333;48.800;9.530;2022-10-19T01:29:57;43.90;;;17.37;;
2259;SDS011;333;48.800;9.530;2022-10-19T01:32:26;44.37;;;17.00;;
2259;SDS011;333;48.800;9.530;2022-10-19T01:35:00;36.90;;;17.80;;
2259;SDS011;333;48.800;9.530;2022-10-19T01:37:31;33.53;;;18.30;;
2259;SDS011;333;48.800;9.530;2022-10-19T01:40:01;28.93;;;16.70;;
2259;SDS011;333;48.800;9.530;2022-10-19T01:42:30;21.87;;;13.03;;
2259;SDS011;333;48.800;9.530;2022-10-19T01:45:01;29.17;;;15.70;;
2259;SDS011;333;48.800;9.530;2022-10-19T01:47:31;23.53;;;16.00;;
2259;SDS011;333;48.800;9.530;2022-10-19T01:50:00;20.93;;;15.30;;
2259;SDS011;333;48.800;9.530;2022-10-19T01:52:29;17.87;;;14.87;;
2259;SDS011;333;48.800;9.530;2022-10-19T01:54:57;25.20;;;16.33;;
2259;SDS011;333;48.800;9.530;2022-10-19T01:57:27;26.30;;;17.53;;
2259;SDS011;333;48.800;9.530;2022-10-19T01:59:56;27.53;;;15.87;;
2259;SDS011;333;48.800;9.530;2022-10-19T02:02:30;23.87;;;14.97;;
2259;SDS011;333;48.800;9.530;2022-10-19T02:04:58;24.27;;;15.60;;
2259;SDS011;333;48.800;9.530;2022-10-19T02:07:25;28.30;;;16.37;;
2259;SDS011;333;48.800;9.530;2022-10-19T02:09:53;34.30;;;17.63;;
2259;SDS011;333;48.800;9.530;2022-10-19T02:12:21;33.63;;;15.80;;
2259;SDS011;333;48.800;9.530;2022-10-19T02:14:50;25.80;;;15.30;;
2259;SDS011;333;48.800;9.530;2022-10-19T02:17:19;19.53;;;13.70;;
2259;SDS011;333;48.800;9.530;2022-10-19T02:19:49;34.37;;;16.67;;
2259;SDS011;333;48.800;9.530;2022-10-19T02:22:16;28.30;;;15.67;;
2259;SDS011;333;48.800;9.530;2022-10-19T02:24:43;27.30;;;15.47;;
2259;SDS011;333;48.800;9.530;2022-10-19T02:27:11;38.00;;;15.97;;
2259;SDS011;333;48.800;9.530;2022-10-19T02:29:38;21.23;;;14.23;;
2259;SDS011;333;48.800;9.530;2022-10-19T02:32:05;19.13;;;13.57;;
2259;SDS011;333;48.800;9.530;2022-10-19T02:34:33;22.90;;;12.43;;
2259;SDS011;333;48.800;9.530;2022-10-19T02:37:03;23.17;;;14.60;;
2259;SDS011;333;48.800;9.530;2022-10-19T02:39:30;25.73;;;13.93;;
2259;SDS011;333;48.800;9.530;2022-10-19T02:41:58;18.33;;;12.90;;
2259;SDS011;333;48.800;9.530;2022-10-19T02:44:28;14.50;;;12.87;;
2259;SDS011;333;48.800;9.530;2022-10-19T02:46:58;15.40;;;13.30;;
2259;SDS011;333;48.800;9.530;2022-10-19T02:49:26;17.00;;;13.30;;
2259;SDS011;333;48.800;9.530;2022-10-19T02:51:56;17.87;;;13.10;;
2259;SDS011;333;48.800;9.530;2022-10-19T02:54:25;16.33;;;12.43;;
2259;SDS011;333;48.800;9.530;2022-10-19T02:56:53;16.27;;;12.60;;
2259;SDS011;333;48.800;9.530;2022-10-19T02:59:20;18.23;;;14.00;;
2259;SDS011;333;48.800;9.530;2022-10-19T03:01:47;20.40;;;14.37;;
2259;SDS011;333;48.800;9.530;2022-10-19T03:04:15;18.50;;;14.73;;
2259;SDS011;333;48.800;9.530;2022-10-19T03:06:42;16.40;;;13.20;;
2259;SDS011;333;48.800;9.530;2022-10-19T03:09:09;17.23;;;13.50;;
2259;SDS011;333;48.800;9.530;2022-10-19T03:11:38;20.60;;;14.77;;
2259;SDS011;333;48.800;9.530;2022-10-19T03:14:05;20.73;;;15.07;;
2259;SDS011;333;48.800;9.530;2022-10-19T03:16:32;16.30;;;14.50;;
2259;SDS011;333;48.800;9.530;2022-10-19T03:19:00;17.97;;;13.40;;
2259;SDS011;333;48.800;9.530;2022-10-19T03:21:27;20.77;;;14.33;;
2259;SDS011;333;48.800;9.530;2022-10-19T03:23:54;16.80;;;13.27;;
2259;SDS011;333;48.800;9.530;2022-10-19T03:26:21;18.70;;;14.23;;
2259;SDS011;333;48.800;9.530;2022-10-19T03:28:50;17.60;;;14.67;;
2259;SDS011;333;48.800;9.530;2022-10-19T03:31:17;19.63;;;14.30;;
2259;SDS011;333;48.800;9.530;2022-10-19T03:33:44;18.00;;;13.77;;
2259;SDS011;333;48.800;9.530;2022-10-19T03:36:12;15.67;;;13.77;;
2259;SDS011;333;48.800;9.530;2022-10-19T03:38:40;15.90;;;13.23;;
2259;SDS011;333;48.800;9.530;2022-10-19T03:41:07;16.73;;;13.70;;
2259;SDS011;333;48.800;9.530;2022-10-19T03:43:34;14.97;;;11.83;;
2259;SDS011;333;48.800;9.530;2022-10-19T03:46:03;15.87;;;12.80;;
2259;SDS011;333;48.800;9.530;2022-10-19T03:48:31;16.57;;;13.57;;
2259;SDS011;333;48.800;9.530;2022-10-19T03:50:58;24.13;;;14.10;;
2259;SDS011;333;48.800;9.530;2022-10-19T03:53:26;17.57;;;14.10;;
2259;SDS011;333;48.800;9.530;2022-10-19T03:55:59;20.37;;;14.50;;
2259;SDS011;333;48.800;9.530;2022-10-19T03:58:27;17.50;;;13.20;;
2259;SDS011;333;48.800;9.530;2022-10-19T04:00:54;21.10;;;16.17;;
2259;SDS011;333;48.800;9.530;2022-10-19T04:03:23;19.67;;;14.70;;
2259;SDS011;333;48.800;9.530;2022-10-19T04:05:50;16.20;;;13.43;;
2259;SDS011;333;48.800;9.530;2022-10-19T04:08:17;19.50;;;14.10;;
2259;SDS011;333;48.800;9.530;2022-10-19T04:10:44;15.40;;;13.80;;
2259;SDS011;333;48.800;9.530;2022-10-19T04:13:12;19.60;;;15.00;;
2259;SDS011;333;48.800;9.530;2022-10-19T04:15:39;18.63;;;14.97;;
2259;SDS011;333;48.800;9.530;2022-10-19T04:18:06;15.03;;;13.23;;
2259;SDS011;333;48.800;9.530;2022-10-19T04:20:35;17.67;;;15.00;;
2259;SDS011;333;48.800;9.530;2022-10-19T04:23:06;16.20;;;12.77;;
2259;SDS011;333;48.800;9.530;2022-10-19T04:25:33;18.23;;;13.70;;
2259;SDS011;333;48.800;9.530;2022-10-19T04:28:01;17.50;;;13.10;;
2259;SDS011;333;48.800;9.530;2022-10-19T04:30:28;19.03;;;13.70;;
2259;SDS011;333;48.800;9.530;2022-10-19T04:32:55;16.53;;;12.30;;
2259;SDS011;333;48.800;9.530;2022-10-19T04:35:22;18.73;;;14.07;;
2259;SDS011;333;48.800;9.530;2022-10-19T04:37:51;19.17;;;14.40;;
2259;SDS011;333;48.800;9.530;2022-10-19T04:40:18;20.83;;;14.00;;
2259;SDS011;333;48.800;9.530;2022-10-19T04:42:45;14.50;;;12.80;;
2259;SDS011;333;48.800;9.530;2022-10-19T04:45:13;24.73;;;15.33;;
2259;SDS011;333;48.800;9.530;2022-10-19T04:47:40;20.33;;;14.20;;
2259;SDS011;333;48.800;9.530;2022-10-19T04:50:07;20.23;;;14.50;;
2259;SDS011;333;48.800;9.530;2022-10-19T04:52:35;16.67;;;13.63;;
2259;SDS011;333;48.800;9.530;2022-10-19T04:55:04;17.73;;;15.47;;
2259;SDS011;333;48.800;9.530;2022-10-19T04:57:31;19.57;;;14.27;;
2259;SDS011;333;48.800;9.530;2022-10-19T04:59:58;17.07;;;14.13;;
2259;SDS011;333;48.800;9.530;2022-10-19T05:02:25;19.10;;;15.33;;
2259;SDS011;333;48.800;9.530;2022-10-19T05:04:53;18.50;;;14.30;;
2259;SDS011;333;48.800;9.530;2022-10-19T05:07:20;16.07;;;14.40;;
2259;SDS011;333;48.800;9.530;2022-10-19T05:09:47;19.60;;;14.23;;
2259;SDS011;333;48.800;9.530;2022-10-19T05:12:16;19.40;;;14.30;;
2259;SDS011;333;48.800;9.530;2022-10-19T05:14:43;18.00;;;14.33;;
2259;SDS011;333;48.800;9.530;2022-10-19T05:17:10;21.23;;;15.30;;
2259;SDS011;333;48.800;9.530;2022-10-19T05:19:38;24.17;;;13.93;;
2259;SDS011;333;48.800;9.530;2022-10-19T05:22:05;18.07;;;14.53;;
2259;SDS011;333;48.800;9.530;2022-10-19T05:24:32;15.50;;;13.40;;
2259;SDS011;333;48.800;9.530;2022-10-19T05:27:00;16.97;;;14.03;;
2259;SDS011;333;48.800;9.530;2022-10-19T05:29:28;18.77;;;13.87;;
2259;SDS011;333;48.800;9.530;2022-10-19T05:31:57;18.57;;;13.90;;
2259;SDS011;333;48.800;9.530;2022-10-19T05:34:25;17.70;;;13.60;;
2259;SDS011;333;48.800;9.530;2022-10-19T05:36:52;16.13;;;13.50;;
2259;SDS011;333;48.800;9.530;2022-10-19T05:39:22;23.63;;;14.27;;
2259;SDS011;333;48.800;9.530;2022-10-19T05:41:49;22.30;;;14.47;;
2259;SDS011;333;48.800;9.530;2022-10-19T05:44:17;18.00;;;14.47;;
2259;SDS011;333;48.800;9.530;2022-10-19T05:46:46;23.40;;;15.63;;
2259;SDS011;333;48.800;9.530;2022-10-19T05:49:14;16.90;;;15.10;;
2259;SDS011;333;48.800;9.530;2022-10-19T05:51:41;21.07;;;15.60;;
2259;SDS011;333;48.800;9.530;2022-10-19T05:54:08;18.83;;;13.97;;
2259;SDS011;333;48.800;9.530;2022-10-19T05:56:36;18.90;;;16.13;;
2259;SDS011;333;48.800;9.530;2022-10-19T05:59:04;17.47;;;14.57;;
2259;SDS011;333;48.800;9.530;2022-10-19T06:01:32;18.10;;;13.70;;
2259;SDS011;333;48.800;9.530;2022-10-19T06:04:01;20.93;;;15.50;;
2259;SDS011;333;48.800;9.530;2022-10-19T06:06:29;18.17;;;14.13;;
2259;SDS011;333;48.800;9.530;2022-10-19T06:08:57;17.53;;;14.57;;
2259;SDS011;333;48.800;9.530;2022-10-19T06:11:25;14.77;;;13.17;;
2259;SDS011;333;48.800;9.530;2022-10-19T06:13:54;18.33;;;14.30;;
2259;SDS011;333;48.800;9.530;2022-10-19T06:16:21;17.43;;;14.27;;
2259;SDS011;333;48.800;9.530;2022-10-19T06:18:49;18.20;;;14.47;;
2259;SDS011;333;48.800;9.530;2022-10-19T06:21:18;19.53;;;15.00;;
2259;SDS011;333;48.800;9.530;2022-10-19T06:23:48;17.50;;;14.60;;
2259;SDS011;333;48.800;9.530;2022-10-19T06:26:15;17.73;;;14.90;;
2259;SDS011;333;48.800;9.530;2022-10-19T06:28:43;19.90;;;15.73;;
2259;SDS011;333;48.800;9.530;2022-10-19T06:31:10;17.57;;;13.77;;
2259;SDS011;333;48.800;9.530;2022-10-19T06:33:39;18.17;;;15.30;;
2259;SDS011;333;48.800;9.530;2022-10-19T06:36:06;18.23;;;15.30;;
2259;SDS011;333;48.800;9.530;2022-10-19T06:38:35;17.37;;;14.83;;
2259;SDS011;333;48.800;9.530;2022-10-19T06:41:03;16.67;;;14.80;;
2259;SDS011;333;48.800;9.530;2022-10-19T06:43:30;21.20;;;15.73;;
2259;SDS011;333;48.800;9.530;2022-10-19T06:45:57;22.23;;;14.90;;
2259;SDS011;333;48.800;9.530;2022-10-19T06:48:24;17.67;;;14.30;;
2259;SDS011;333;48.800;9.530;2022-10-19T06:50:55;14.60;;;12.53;;
2259;SDS011;333;48.800;9.530;2022-10-19T06:53:23;18.73;;;15.33;;
2259;SDS011;333;48.800;9.530;2022-10-19T06:55:52;19.13;;;13.30;;
2259;SDS011;333;48.800;9.530;2022-10-19T06:58:19;13.77;;;12.20;;
2259;SDS011;333;48.800;9.530;2022-10-19T07:00:52;13.47;;;11.80;;
2259;SDS011;333;48.800;9.530;2022-10-19T07:03:21;15.27;;;13.30;;
2259;SDS011;333;48.800;9.530;2022-10-19T07:05:52;14.23;;;11.37;;
2259;SDS011;333;48.800;9.530;2022-10-19T07:08:19;14.53;;;10.03;;
2259;SDS011;333;48.800;9.530;2022-10-19T07:10:48;11.57;;;9.27;;
2259;SDS011;333;48.800;9.530;2022-10-19T07:13:17;11.40;;;10.13;;
2259;SDS011;333;48.800;9.530;2022-10-19T07:15:44;10.40;;;7.93;;
2259;SDS011;333;48.800;9.530;2022-10-19T07:18:11;9.03;;;8.10;;
2259;SDS011;333;48.800;9.530;2022-10-19T07:20:39;9.73;;;8.73;;
2259;SDS011;333;48.800;9.530;2022-10-19T07:23:06;9.47;;;8.30;;
2259;SDS011;333;48.800;9.530;2022-10-19T07:25:34;8.83;;;7.93;;
2259;SDS011;333;48.800;9.530;2022-10-19T07:28:02;8.67;;;7.37;;
2259;SDS011;333;48.800;9.530;2022-10-19T07:30:31;8.70;;;7.07;;
2259;SDS011;333;48.800;9.530;2022-10-19T07:32:58;11.10;;;8.07;;
2259;SDS011;333;48.800;9.530;2022-10-19T07:35:25;8.50;;;7.70;;
2259;SDS011;333;48.800;9.530;2022-10-19T07:37:52;10.83;;;8.07;;
2259;SDS011;333;48.800;9.530;2022-10-19T07:40:20;8.60;;;7.67;;
2259;SDS011;333;48.800;9.530;2022-10-19T07:42:47;7.50;;;6.50;;
2259;SDS011;333;48.800;9.530;2022-10-19T07:45:14;7.23;;;6.53;;
2259;SDS011;333;48.800;9.530;2022-10-19T07:47:43;7.43;;;6.50;;
2259;SDS011;333;48.800;9.530;2022-10-19T07:50:10;6.80;;;6.10;;
2259;SDS011;333;48.800;9.530;2022-10-19T07:52:37;7.30;;;6.57;;
2259;SDS011;333;48.800;9.530;2022-10-19T07:55:04;7.60;;;6.77;;
2259;SDS011;333;48.800;9.530;2022-10-19T07:57:32;7.43;;;6.73;;
2259;SDS011;333;48.800;9.530;2022-10-19T07:59:59;8.40;;;6.53;;
2259;SDS011;333;48.800;9.530;2022-10-19T08:02:26;6.83;;;6.20;;
2259;SDS011;333;48.800;9.530;2022-10-19T08:04:55;7.13;;;5.70;;
2259;SDS011;333;48.800;9.530;2022-10-19T08:07:22;5.53;;;4.93;;
2259;SDS011;333;48.800;9.530;2022-10-19T08:09:49;7.60;;;5.30;;
2259;SDS011;333;48.800;9.530;2022-10-19T08:12:16;7.43;;;4.90;;
2259;SDS011;333;48.800;9.530;2022-10-19T08:14:43;4.27;;;3.87;;
2259;SDS011;333;48.800;9.530;2022-10-19T08:17:12;5.60;;;4.40;;
2259;SDS011;333;48.800;9.530;2022-10-19T08:19:41;5.33;;;4.83;;
2259;SDS011;333;48.800;9.530;2022-10-19T08:22:10;6.60;;;4.70;;
2259;SDS011;333;48.800;9.530;2022-10-19T08:24:37;7.67;;;6.03;;
2259;SDS011;333;48.800;9.530;2022-10-19T08:27:04;6.57;;;4.37;;
2259;SDS011;333;48.800;9.530;2022-10-19T08:29:31;5.43;;;4.23;;
2259;SDS011;333;48.800;9.530;2022-10-19T08:31:59;6.63;;;4.43;;
2259;SDS011;333;48.800;9.530;2022-10-19T08:34:26;5.27;;;4.13;;
2259;SDS011;333;48.800;9.530;2022-10-19T08:36:53;4.60;;;4.00;;
2259;SDS011;333;48.800;9.530;2022-10-19T08:39:22;3.60;;;3.27;;
2259;SDS011;333;48.800;9.530;2022-10-19T08:41:55;3.90;;;3.50;;
2259;SDS011;333;48.800;9.530;2022-10-19T08:44:47;4.43;;;4.03;;
2259;SDS011;333;48.800;9.530;2022-10-19T08:47:16;5.63;;;3.87;;
2259;SDS011;333;48.800;9.530;2022-10-19T08:49:46;5.30;;;3.20;;
2259;SDS011;333;48.800;9.530;2022-10-19T08:52:15;4.43;;;4.03;;
2259;SDS011;333;48.800;9.530;2022-10-19T08:54:48;4.93;;;4.20;;
2259;SDS011;333;48.800;9.530;2022-10-19T08:57:21;3.53;;;3.10;;
2259;SDS011;333;48.800;9.530;2022-10-19T08:59:53;3.90;;;3.57;;
2259;SDS011;333;48.800;9.530;2022-10-19T09:02:23;6.10;;;4.07;;
2259;SDS011;333;48.800;9.530;2022-10-19T09:04:58;4.13;;;3.73;;
2259;SDS011;333;48.800;9.530;2022-10-19T09:07:27;3.20;;;2.90;;
2259;SDS011;333;48.800;9.530;2022-10-19T09:09:58;4.20;;;3.60;;
2259;SDS011;333;48.800;9.530;2022-10-19T09:12:32;4.50;;;3.40;;
2259;SDS011;333;48.800;9.530;2022-10-19T09:15:02;4.50;;;2.87;;
2259;SDS011;333;48.800;9.530;2022-10-19T09:17:30;4.47;;;4.07;;
2259;SDS011;333;48.800;9.530;2022-10-19T09:19:57;4.43;;;3.83;;
2259;SDS011;333;48.800;9.530;2022-10-19T09:22:28;5.60;;;4.23;;
2259;SDS011;333;48.800;9.530;2022-10-19T09:24:59;5.40;;;4.27;;
2259;SDS011;333;48.800;9.530;2022-10-19T09:27:33;4.63;;;4.23;;
2259;SDS011;333;48.800;9.530;2022-10-19T09:30:03;5.70;;;4.50;;
2259;SDS011;333;48.800;9.530;2022-10-19T09:32:32;7.00;;;3.63;;
2259;SDS011;333;48.800;9.530;2022-10-19T09:35:00;3.93;;;3.53;;
2259;SDS011;333;48.800;9.530;2022-10-19T09:37:28;4.57;;;4.10;;
2259;SDS011;333;48.800;9.530;2022-10-19T09:39:55;5.40;;;4.23;;
2259;SDS011;333;48.800;9.530;2022-10-19T09:42:24;6.63;;;4.77;;
2259;SDS011;333;48.800;9.530;2022-10-19T09:44:54;5.23;;;4.07;;
2259;SDS011;333;48.800;9.530;2022-10-19T09:47:26;8.97;;;5.47;;
2259;SDS011;333;48.800;9.530;2022-10-19T09:50:05;6.57;;;5.77;;
2259;SDS011;333;48.800;9.530;2022-10-19T09:52:34;7.17;;;4.60;;
2259;SDS011;333;48.800;9.530;2022-10-19T09:55:02;10.60;;;4.10;;
2259;SDS011;333;48.800;9.530;2022-10-19T09:57:31;4.80;;;4.40;;
2259;SDS011;333;48.800;9.530;2022-10-19T09:59:59;5.47;;;4.50;;
2259;SDS011;333;48.800;9.530;2022-10-19T10:02:29;5.50;;;4.83;;
2259;SDS011;333;48.800;9.530;2022-10-19T10:05:02;4.50;;;4.10;;
2259;SDS011;333;48.800;9.530;2022-10-19T10:07:31;6.67;;;4.40;;
2259;SDS011;333;48.800;9.530;2022-10-19T10:09:59;4.33;;;3.93;;
2259;SDS011;333;48.800;9.530;2022-10-19T10:12:27;3.50;;;3.20;;
2259;SDS011;333;48.800;9.530;2022-10-19T10:14:55;4.27;;;3.90;;
2259;SDS011;333;48.800;9.530;2022-10-19T10:17:25;3.53;;;3.23;;
2259;SDS011;333;48.800;9.530;2022-10-19T10:20:02;3.80;;;3.30;;
2259;SDS011;333;48.800;9.530;2022-10-19T10:22:31;4.30;;;3.53;;
2259;SDS011;333;48.800;9.530;2022-10-19T10:24:59;3.33;;;3.03;;
2259;SDS011;333;48.800;9.530;2022-10-19T10:27:31;3.23;;;2.93;;
2259;SDS011;333;48.800;9.530;2022-10-19T10:30:06;2.97;;;2.77;;
2259;SDS011;333;48.800;9.530;2022-10-19T10:32:35;2.40;;;2.20;;
2259;SDS011;333;48.800;9.530;2022-10-19T10:35:05;3.40;;;2.50;;
2259;SDS011;333;48.800;9.530;2022-10-19T10:37:34;3.03;;;2.73;;
2259;SDS011;333;48.800;9.530;2022-10-19T10:40:04;2.60;;;2.40;;
2259;SDS011;333;48.800;9.530;2022-10-19T10:42:34;2.70;;;2.50;;
2259;SDS011;333;48.800;9.530;2022-10-19T10:45:08;3.03;;;2.73;;
2259;SDS011;333;48.800;9.530;2022-10-19T10:47:42;2.73;;;2.53;;
2259;SDS011;333;48.800;9.530;2022-10-19T10:50:15;2.47;;;2.27;;
2259;SDS011;333;48.800;9.530;2022-10-19T10:52:54;2.73;;;2.27;;
2259;SDS011;333;48.800;9.530;2022-10-19T10:55:22;3.07;;;2.50;;
2259;SDS011;333;48.800;9.530;2022-10-19T10:57:51;3.10;;;2.80;;
2259;SDS011;333;48.800;9.530;2022-10-19T11:00:21;3.63;;;2.57;;
2259;SDS011;333;48.800;9.530;2022-10-19T11:02:50;2.50;;;2.30;;
2259;SDS011;333;48.800;9.530;2022-10-19T11:05:21;2.60;;;2.40;;
2259;SDS011;333;48.800;9.530;2022-10-19T11:07:51;2.93;;;2.37;;
2259;SDS011;333;48.800;9.530;2022-10-19T11:10:21;3.27;;;2.97;;
2259;SDS011;333;48.800;9.530;2022-10-19T11:12:52;3.53;;;3.23;;
2259;SDS011;333;48.800;9.530;2022-10-19T11:15:23;3.00;;;2.70;;
2259;SDS011;333;48.800;9.530;2022-10-19T11:17:56;2.70;;;2.50;;
2259;SDS011;333;48.800;9.530;2022-10-19T11:20:25;6.37;;;2.90;;
2259;SDS011;333;48.800;9.530;2022-10-19T11:22:55;6.40;;;2.63;;
2259;SDS011;333;48.800;9.530;2022-10-19T11:25:29;2.90;;;2.70;;
2259;SDS011;333;48.800;9.530;2022-10-19T11:28:01;3.63;;;3.30;;
2259;SDS011;333;48.800;9.530;2022-10-19T11:30:32;3.53;;;3.20;;
2259;SDS011;333;48.800;9.530;2022-10-19T11:33:03;3.43;;;2.80;;
2259;SDS011;333;48.800;9.530;2022-10-19T11:35:47;2.53;;;2.33;;
2259;SDS011;333;48.800;9.530;2022-10-19T11:38:21;4.47;;;3.67;;
2259;SDS011;333;48.800;9.530;2022-10-19T11:40:50;4.13;;;3.67;;
2259;SDS011;333;48.800;9.530;2022-10-19T11:43:19;5.30;;;4.27;;
2259;SDS011;333;48.800;9.530;2022-10-19T11:45:52;4.00;;;3.60;;
2259;SDS011;333;48.800;9.530;2022-10-19T11:48:25;6.67;;;4.50;;
2259;SDS011;333;48.800;9.530;2022-10-19T11:50:57;5.07;;;4.57;;
2259;SDS011;333;48.800;9.530;2022-10-19T11:53:30;4.50;;;4.10;;
2259;SDS011;333;48.800;9.530;2022-10-19T11:56:00;8.37;;;5.47;;
2259;SDS011;333;48.800;9.530;2022-10-19T11:58:36;5.00;;;4.50;;
2259;SDS011;333;48.800;9.530;2022-10-19T12:01:11;5.43;;;4.40;;
2259;SDS011;333;48.800;9.530;2022-10-19T12:06:26;4.13;;;3.73;;
2259;SDS011;333;48.800;9.530;2022-10-19T12:08:59;9.10;;;4.20;;
2259;SDS011;333;48.800;9.530;2022-10-19T12:11:30;4.83;;;4.43;;
2259;SDS011;333;48.800;9.530;2022-10-19T12:14:02;6.20;;;4.47;;
2259;SDS011;333;48.800;9.530;2022-10-19T12:16:34;4.90;;;4.50;;
2259;SDS011;333;48.800;9.530;2022-10-19T12:19:02;9.00;;;4.10;;
2259;SDS011;333;48.800;9.530;2022-10-19T12:21:31;4.03;;;3.73;;
2259;SDS011;333;48.800;9.530;2022-10-19T12:23:59;3.87;;;3.57;;
2259;SDS011;333;48.800;9.530;2022-10-19T12:26:28;6.90;;;4.33;;
2259;SDS011;333;48.800;9.530;2022-10-19T12:28:57;4.03;;;3.63;;
2259;SDS011;333;48.800;9.530;2022-10-19T12:31:26;3.70;;;3.40;;
2259;SDS011;333;48.800;9.530;2022-10-19T12:33:57;12.70;;;4.30;;
2259;SDS011;333;48.800;9.530;2022-10-19T12:36:30;4.80;;;3.90;;
2259;SDS011;333;48.800;9.530;2022-10-19T12:39:01;4.73;;;3.43;;
2259;SDS011;333;48.800;9.530;2022-10-19T12:41:34;3.37;;;3.07;;
2259;SDS011;333;48.800;9.530;2022-10-19T12:46:54;3.30;;;2.67;;
2259;SDS011;333;48.800;9.530;2022-10-19T12:49:45;2.73;;;2.53;;
2259;SDS011;333;48.800;9.530;2022-10-19T12:52:13;2.60;;;2.40;;
2259;SDS011;333;48.800;9.530;2022-10-19T12:54:41;2.60;;;2.23;;
2259;SDS011;333;48.800;9.530;2022-10-19T12:57:19;3.60;;;3.30;;
2259;SDS011;333;48.800;9.530;2022-10-19T12:59:55;3.70;;;2.83;;
2259;SDS011;333;48.800;9.530;2022-10-19T13:02:24;3.30;;;3.00;;
2259;SDS011;333;48.800;9.530;2022-10-19T13:04:54;2.93;;;2.70;;
2259;SDS011;333;48.800;9.530;2022-10-19T13:07:22;6.67;;;3.10;;
2259;SDS011;333;48.800;9.530;2022-10-19T13:09:51;3.37;;;3.07;;
2259;SDS011;333;48.800;9.530;2022-10-19T13:12:26;2.63;;;2.43;;
2259;SDS011;333;48.800;9.530;2022-10-19T13:14:54;3.10;;;2.73;;
2259;SDS011;333;48.800;9.530;2022-10-19T13:17:37;3.40;;;2.90;;
2259;SDS011;333;48.800;9.530;2022-10-19T13:25:59;3.10;;;2.80;;
2259;SDS011;333;48.800;9.530;2022-10-19T13:28:53;3.40;;;2.30;;
2259;SDS011;333;48.800;9.530;2022-10-19T13:31:22;2.80;;;2.43;;
2259;SDS011;333;48.800;9.530;2022-10-19T13:33:49;4.20;;;3.80;;
2259;SDS011;333;48.800;9.530;2022-10-19T13:36:17;4.10;;;2.97;;
2259;SDS011;333;48.800;9.530;2022-10-19T13:38:46;3.60;;;3.30;;
2259;SDS011;333;48.800;9.530;2022-10-19T13:41:15;3.70;;;3.07;;
2259;SDS011;333;48.800;9.530;2022-10-19T13:43:50;2.67;;;2.47;;
2259;SDS011;333;48.800;9.530;2022-10-19T13:46:19;3.67;;;3.37;;
2259;SDS011;333;48.800;9.530;2022-10-19T13:51:50;3.83;;;3.43;;
2259;SDS011;333;48.800;9.530;2022-10-19T13:54:28;4.03;;;3.30;;
2259;SDS011;333;48.800;9.530;2022-10-19T13:57:02;2.87;;;2.67;;
2259;SDS011;333;48.800;9.530;2022-10-19T14:05:19;3.60;;;3.30;;
2259;SDS011;333;48.800;9.530;2022-10-19T14:07:52;3.90;;;3.20;;
2259;SDS011;333;48.800;9.530;2022-10-19T14:10:24;3.70;;;3.40;;
2259;SDS011;333;48.800;9.530;2022-10-19T14:12:52;2.77;;;2.57;;
2259;SDS011;333;48.800;9.530;2022-10-19T14:15:21;3.03;;;2.83;;
2259;SDS011;333;48.800;9.530;2022-10-19T14:17:48;2.80;;;2.60;;
2259;SDS011;333;48.800;9.530;2022-10-19T14:20:23;3.67;;;3.37;;
2259;SDS011;333;48.800;9.530;2022-10-19T14:22:51;3.33;;;3.03;;
2259;SDS011;333;48.800;9.530;2022-10-19T14:25:19;3.40;;;3.10;;
2259;SDS011;333;48.800;9.530;2022-10-19T14:27:49;4.10;;;3.40;;
2259;SDS011;333;48.800;9.530;2022-10-19T14:30:20;3.40;;;3.20;;
2259;SDS011;333;48.800;9.530;2022-10-19T14:32:48;4.27;;;2.73;;
2259;SDS011;333;48.800;9.530;2022-10-19T14:35:18;3.60;;;3.00;;
2259;SDS011;333;48.800;9.530;2022-10-19T14:37:46;3.33;;;3.13;;
2259;SDS011;333;48.800;9.530;2022-10-19T14:40:23;4.00;;;3.60;;
2259;SDS011;333;48.800;9.530;2022-10-19T14:42:52;4.70;;;4.30;;
2259;SDS011;333;48.800;9.530;2022-10-19T14:45:21;4.60;;;4.20;;
2259;SDS011;333;48.800;9.530;2022-10-19T14:47:49;3.97;;;3.67;;
2259;SDS011;333;48.800;9.530;2022-10-19T14:50:17;4.77;;;4.33;;
2259;SDS011;333;48.800;9.530;2022-10-19T14:52:45;4.10;;;3.80;;
2259;SDS011;333;48.800;9.530;2022-10-19T14:55:14;4.33;;;3.93;;
2259;SDS011;333;48.800;9.530;2022-10-19T14:57:42;4.90;;;4.50;;
2259;SDS011;333;48.800;9.530;2022-10-19T15:00:15;6.70;;;5.20;;
2259;SDS011;333;48.800;9.530;2022-10-19T15:02:44;5.10;;;4.60;;
2259;SDS011;333;48.800;9.530;2022-10-19T15:05:14;5.10;;;4.70;;
2259;SDS011;333;48.800;9.530;2022-10-19T15:07:43;4.30;;;4.00;;
2259;SDS011;333;48.800;9.530;2022-10-19T15:10:16;4.80;;;4.40;;
2259;SDS011;333;48.800;9.530;2022-10-19T15:12:45;5.67;;;5.27;;
2259;SDS011;333;48.800;9.530;2022-10-19T15:15:15;6.13;;;5.63;;
2259;SDS011;333;48.800;9.530;2022-10-19T15:17:51;7.80;;;5.87;;
2259;SDS011;333;48.800;9.530;2022-10-19T15:20:22;6.03;;;5.53;;
2259;SDS011;333;48.800;9.530;2022-10-19T15:22:50;6.10;;;5.60;;
2259;SDS011;333;48.800;9.530;2022-10-19T15:25:28;5.27;;;4.80;;
2259;SDS011;333;48.800;9.530;2022-10-19T15:28:16;6.33;;;5.70;;
2259;SDS011;333;48.800;9.530;2022-10-19T15:30:55;6.70;;;6.20;;
2259;SDS011;333;48.800;9.530;2022-10-19T15:33:23;5.80;;;5.17;;
2259;SDS011;333;48.800;9.530;2022-10-19T15:35:50;6.33;;;5.77;;
2259;SDS011;333;48.800;9.530;2022-10-19T15:38:18;5.33;;;4.83;;
2259;SDS011;333;48.800;9.530;2022-10-19T15:40:46;7.13;;;5.83;;
2259;SDS011;333;48.800;9.530;2022-10-19T15:43:31;5.33;;;4.93;;
2259;SDS011;333;48.800;9.530;2022-10-19T15:46:02;5.67;;;5.07;;
2259;SDS011;333;48.800;9.530;2022-10-19T15:48:41;6.73;;;5.93;;
2259;SDS011;333;48.800;9.530;2022-10-19T15:53:53;6.10;;;5.60;;
2259;SDS011;333;48.800;9.530;2022-10-19T15:56:21;7.23;;;6.60;;
2259;SDS011;333;48.800;9.530;2022-10-19T15:58:49;8.33;;;6.80;;